Time;durP1;ratioP1;P1;durP2;ratioP2;P2;SDS_P1;SDS_P2;PMS_P1;PMS_P2;Temp;Humidity;BMP_temperature;BMP_pressure;BME280_temperature;BME280_humidity;BME280_pressure;Samples;Min_cycle;Max_cycle;Signal;HPM_P1;HPM_P2
2021/11/27 00:00:00;;;;;;;12.23;7.90;;;1.60;80.60;;;-0.42;91.13;93715.53;4988429;28;20569;-65
2021/11/27 00:02:26;;;;;;;11.68;8.23;;;1.60;80.60;;;-0.42;91.14;93706.00;4985089;28;20034;-65
2021/11/27 00:04:51;;;;;;;9.80;6.85;;;1.60;80.60;;;-0.42;91.23;93702.63;4971392;28;20068;-66
2021/11/27 00:07:17;;;;;;;11.98;7.72;;;1.60;80.60;;;-0.42;91.40;93705.22;4986904;28;20089;-66
2021/11/27 00:09:43;;;;;;;12.95;8.90;;;1.60;80.70;;;-0.43;91.58;93693.28;4972346;28;20026;-66
2021/11/27 00:12:09;;;;;;;12.13;8.48;;;1.60;80.70;;;-0.44;91.29;93691.69;4986797;28;20435;-65
2021/11/27 00:14:35;;;;;;;13.43;8.77;;;1.60;80.80;;;-0.47;91.76;93686.84;4986807;28;20506;-66
2021/11/27 00:17:02;;;;;;;13.52;8.73;;;1.60;80.70;;;-0.51;90.98;93678.66;4987113;28;20093;-65
2021/11/27 00:19:27;;;;;;;13.43;8.52;;;1.50;80.90;;;-0.48;91.73;93680.88;4985521;28;20533;-66
2021/11/27 00:21:53;;;;;;;12.25;8.68;;;1.60;80.80;;;-0.49;91.56;93678.50;4988050;28;20034;-66
2021/11/27 00:24:19;;;;;;;13.18;9.07;;;1.60;80.90;;;-0.51;91.87;93670.13;4973829;28;20194;-66
2021/11/27 00:26:45;;;;;;;14.35;9.18;;;1.60;81.00;;;-0.53;91.78;93667.72;4974450;28;20125;-66
2021/11/27 00:29:10;;;;;;;14.00;8.82;;;1.60;81.10;;;-0.55;91.56;93668.88;4988284;28;20066;-65
2021/11/27 00:31:39;;;;;;;13.90;9.00;;;1.60;81.00;;;-0.55;92.18;93661.16;4988916;28;20452;-66
2021/11/27 00:34:05;;;;;;;11.65;8.38;;;1.50;81.00;;;-0.55;91.82;93659.38;4970515;28;20026;-66
2021/11/27 00:36:30;;;;;;;12.75;8.48;;;1.50;80.80;;;-0.55;92.03;93658.56;5002927;28;20184;-66
2021/11/27 00:38:56;;;;;;;11.90;8.32;;;1.50;81.10;;;-0.55;91.56;93648.25;4956701;28;20022;-65
2021/11/27 00:41:22;;;;;;;13.45;8.60;;;1.50;81.00;;;-0.55;91.44;93654.19;4956596;28;20030;-66
2021/11/27 00:43:48;;;;;;;12.88;9.25;;;1.50;81.00;;;-0.58;91.89;93654.56;4987041;28;20037;-66
2021/11/27 00:46:14;;;;;;;12.90;8.35;;;1.50;81.10;;;-0.60;91.64;93650.56;5000330;28;20414;-65
2021/11/27 00:48:39;;;;;;;12.65;8.63;;;1.40;81.20;;;-0.64;91.79;93653.50;4981427;28;20039;-64
2021/11/27 00:51:09;;;;;;;14.80;8.60;;;1.40;81.30;;;-0.64;91.85;93644.97;4988452;28;20433;-64
2021/11/27 00:53:35;;;;;;;11.70;7.93;;;1.30;81.40;;;-0.68;92.09;93649.69;4973260;28;20447;-64
2021/11/27 00:56:01;;;;;;;13.35;8.15;;;1.30;81.60;;;-0.67;91.89;93645.34;4989463;28;20027;-64
2021/11/27 00:58:27;;;;;;;11.82;7.97;;;1.30;81.50;;;-0.68;92.00;93643.72;4987804;28;20034;-64
2021/11/27 01:00:57;;;;;;;12.23;8.18;;;1.40;81.30;;;-0.69;91.76;93642.91;4989900;28;20072;-64
2021/11/27 01:03:30;;;;;;;13.23;8.33;;;1.40;81.40;;;-0.71;92.03;93639.72;4956982;28;20119;-65
2021/11/27 01:05:58;;;;;;;12.05;7.57;;;1.30;81.40;;;-0.74;91.77;93640.06;4956898;28;20042;-66
2021/11/27 01:08:25;;;;;;;13.13;8.10;;;1.20;81.40;;;-0.73;92.15;93641.69;4971663;28;20050;-66
2021/11/27 01:10:55;;;;;;;12.50;7.78;;;1.30;81.20;;;-0.73;91.97;93641.69;4971712;28;20030;-65
2021/11/27 01:13:21;;;;;;;10.93;7.47;;;1.30;81.20;;;-0.72;91.72;93642.47;4969840;28;20027;-66
2021/11/27 01:15:46;;;;;;;11.68;7.03;;;1.30;81.10;;;-0.73;91.53;93644.25;4971398;28;20629;-66
2021/11/27 01:18:12;;;;;;;10.88;7.22;;;1.40;81.00;;;-0.74;91.41;93632.34;4952653;28;20406;-66
2021/11/27 01:20:49;;;;;;;12.02;7.40;;;1.30;81.10;;;-0.73;91.66;93630.56;4954163;28;20035;-66
2021/11/27 01:23:15;;;;;;;9.93;7.10;;;1.30;80.70;;;-0.74;91.71;93629.75;4984989;28;20525;-66
2021/11/27 01:25:43;;;;;;;11.00;7.63;;;1.30;80.70;;;-0.74;91.16;93619.44;4973672;28;20053;-65
2021/11/27 01:28:09;;;;;;;11.65;7.10;;;1.30;80.50;;;-0.72;91.47;93627.00;4973017;28;20054;-65
2021/11/27 01:30:35;;;;;;;9.40;6.40;;;1.30;80.50;;;-0.73;91.36;93628.78;4986804;28;20054;-65
2021/11/27 01:33:01;;;;;;;10.55;6.55;;;1.40;80.30;;;-0.72;91.32;93622.63;4972184;28;20081;-64
2021/11/27 01:35:26;;;;;;;9.93;6.50;;;1.40;80.10;;;-0.70;90.93;93615.50;4986678;28;20569;-64
2021/11/27 01:37:52;;;;;;;8.82;5.90;;;1.40;80.00;;;-0.70;90.74;93625.81;4987337;28;20058;-64
2021/11/27 01:40:22;;;;;;;9.18;6.22;;;1.40;80.00;;;-0.71;90.58;93624.22;4987182;28;20091;-64
2021/11/27 01:42:48;;;;;;;8.48;5.90;;;1.30;80.10;;;-0.71;90.70;93624.22;4988857;28;20058;-64
2021/11/27 01:45:14;;;;;;;9.23;6.40;;;1.30;80.20;;;-0.71;90.72;93623.44;4955397;28;20045;-64
2021/11/27 01:47:47;;;;;;;8.10;5.72;;;1.30;79.90;;;-0.71;90.96;93624.22;4968083;28;20066;-64
2021/11/27 01:50:13;;;;;;;8.13;6.15;;;1.40;79.90;;;-0.69;90.57;93624.84;4987166;28;20058;-65
2021/11/27 01:52:38;;;;;;;10.15;6.40;;;1.40;79.70;;;-0.68;90.18;93623.06;4971547;28;20053;-64
2021/11/27 01:55:05;;;;;;;9.68;6.00;;;1.50;79.70;;;-0.69;90.29;93622.25;4970306;28;20033;-64
2021/11/27 01:57:30;;;;;;;8.43;5.40;;;1.30;79.40;;;-0.71;90.44;93611.31;4954922;28;20038;-64
2021/11/27 01:59:58;;;;;;;8.95;5.57;;;1.30;79.60;;;-0.74;90.57;93603.94;4986288;28;20426;-64
2021/11/27 02:02:24;;;;;;;7.25;5.28;;;1.30;79.70;;;-0.73;90.59;93610.72;4981635;28;20036;-64
2021/11/27 02:04:51;;;;;;;7.72;5.20;;;1.30;79.60;;;-0.71;90.34;93602.78;4986968;28;20034;-64
2021/11/27 02:07:16;;;;;;;8.82;5.78;;;1.40;79.50;;;-0.68;89.83;93597.25;4971879;28;20095;-64
2021/11/27 02:09:42;;;;;;;8.57;5.68;;;1.50;79.40;;;-0.66;90.02;93603.06;4952688;28;20026;-65
2021/11/27 02:12:10;;;;;;;8.18;5.00;;;1.60;79.20;;;-0.63;90.08;93598.31;4987299;28;20080;-67
2021/11/27 02:14:36;;;;;;;7.15;4.95;;;1.60;79.00;;;-0.62;89.93;93594.75;4951919;28;20085;-64
2021/11/27 02:17:02;;;;;;;7.53;4.80;;;1.60;79.00;;;-0.57;90.26;93593.41;4985610;28;20038;-65
2021/11/27 02:19:27;;;;;;;8.25;5.40;;;1.60;78.90;;;-0.54;89.96;93593.84;4968333;28;20101;-65
2021/11/27 02:21:53;;;;;;;6.95;4.65;;;1.60;78.80;;;-0.51;89.84;93592.66;4985740;28;20413;-66
2021/11/27 02:24:19;;;;;;;7.50;4.50;;;1.70;78.60;;;-0.48;89.65;93581.97;4967203;28;20081;-65
2021/11/27 02:26:46;;;;;;;8.05;4.75;;;1.70;78.50;;;-0.42;89.79;93581.28;4954723;28;20375;-65
2021/11/27 02:29:24;;;;;;;6.38;4.25;;;1.70;78.50;;;-0.38;88.98;93582.50;4956274;28;20034;-65
2021/11/27 02:31:50;;;;;;;6.13;4.00;;;1.70;78.50;;;-0.36;89.41;93575.34;4954596;28;20041;-65
2021/11/27 02:34:15;;;;;;;6.88;4.55;;;1.80;78.40;;;-0.34;89.25;93569.03;4968885;28;20038;-64
2021/11/27 02:36:57;;;;;;;7.13;4.07;;;1.80;78.30;;;-0.29;89.10;93570.25;4985905;28;20100;-65
2021/11/27 02:39:23;;;;;;;5.53;3.85;;;1.80;78.30;;;-0.28;89.40;93551.97;4955776;28;20034;-64
2021/11/27 02:41:53;;;;;;;6.85;4.05;;;1.90;78.20;;;-0.23;89.27;93554.00;4973422;28;20026;-64
2021/11/27 02:44:20;;;;;;;6.00;3.88;;;1.90;77.90;;;-0.21;88.79;93555.44;4986537;28;20084;-64
2021/11/27 02:46:46;;;;;;;7.88;4.00;;;1.90;77.60;;;-0.18;88.78;93552.47;4970233;28;20042;-64
2021/11/27 02:49:11;;;;;;;5.38;3.60;;;1.90;77.80;;;-0.17;89.05;93548.91;4969811;28;20085;-64
2021/11/27 02:51:37;;;;;;;5.78;3.65;;;1.90;77.80;;;-0.16;89.06;93542.75;4970439;28;20162;-64
2021/11/27 02:54:03;;;;;;;4.82;3.60;;;1.90;77.90;;;-0.18;88.90;93537.00;4971194;28;20080;-65
2021/11/27 02:56:29;;;;;;;7.03;3.70;;;1.90;78.10;;;-0.16;89.15;93535.00;4983581;28;20042;-64
2021/11/27 02:58:55;;;;;;;5.63;3.65;;;2.00;78.10;;;-0.13;88.63;93529.47;4970181;28;20072;-65
2021/11/27 03:01:21;;;;;;;4.95;3.40;;;2.00;78.10;;;-0.13;88.58;93526.88;4985832;28;20031;-64
2021/11/27 03:03:46;;;;;;;4.68;3.30;;;2.00;78.00;;;-0.10;88.96;93523.13;4975171;28;20033;-64
2021/11/27 03:06:12;;;;;;;7.38;4.47;;;2.10;77.80;;;-0.09;89.30;93524.72;4986129;28;20424;-65
2021/11/27 03:08:38;;;;;;;6.82;3.83;;;2.10;77.60;;;-0.06;88.35;93525.16;4985635;28;20797;-65
2021/11/27 03:11:04;;;;;;;4.75;3.20;;;2.10;77.80;;;-0.07;88.19;93526.13;4937321;28;20502;-64
2021/11/27 03:13:34;;;;;;;4.40;3.25;;;2.10;77.30;;;-0.08;87.82;93519.38;4966547;28;20030;-68
2021/11/27 03:16:00;;;;;;;6.87;3.93;;;2.00;77.30;;;-0.07;88.73;93510.63;4955538;28;20034;-65
2021/11/27 03:18:26;;;;;;;8.07;5.07;;;2.00;77.80;;;-0.07;88.67;93518.38;4952575;28;20128;-65
2021/11/27 03:20:52;;;;;;;8.75;4.72;;;2.10;77.80;;;-0.06;88.67;93519.19;4981620;28;20046;-64
2021/11/27 03:23:19;;;;;;;8.07;4.57;;;2.10;77.70;;;-0.05;88.52;93516.41;4969900;28;20498;-64
2021/11/27 03:25:44;;;;;;;12.07;6.32;;;2.10;77.90;;;-0.02;88.36;93522.97;4986723;28;20140;-64
2021/11/27 03:28:10;;;;;;;15.35;7.20;;;2.10;77.60;;;0.01;88.39;93524.41;4957862;28;20047;-64
2021/11/27 03:30:36;;;;;;;13.93;6.38;;;2.20;77.70;;;0.03;88.71;93527.59;4955268;28;20130;-64
2021/11/27 03:33:02;;;;;;;13.90;6.78;;;2.20;77.60;;;0.05;88.40;93536.78;4989489;28;20360;-65
2021/11/27 03:35:27;;;;;;;14.80;6.68;;;2.40;77.60;;;0.08;88.56;93525.25;4983529;28;20499;-65
2021/11/27 03:37:53;;;;;;;15.77;5.43;;;2.40;77.40;;;0.08;88.90;93528.63;5006366;28;20069;-64
2021/11/27 03:40:19;;;;;;;9.90;4.50;;;2.40;77.20;;;0.06;87.98;93522.06;4973273;28;20050;-64
2021/11/27 03:42:45;;;;;;;26.60;7.88;;;2.30;77.30;;;0.08;88.06;93525.25;4990857;28;20042;-65
2021/11/27 03:45:13;;;;;;;90.80;21.10;;;2.30;77.30;;;0.07;88.76;93519.28;4992314;28;20042;-65
2021/11/27 03:48:03;;;;;;;26.15;7.43;;;2.30;77.50;;;0.09;88.64;93517.31;4975795;28;20042;-65
2021/11/27 03:50:39;;;;;;;20.35;6.78;;;2.40;77.50;;;0.10;88.35;93512.94;4987041;28;20443;-66
2021/11/27 03:53:05;;;;;;;6.55;3.80;;;2.30;77.50;;;0.10;88.84;93512.94;4963681;28;20121;-64
2021/11/27 03:55:31;;;;;;;4.82;2.95;;;2.30;77.40;;;0.11;88.59;93511.94;4973523;28;20461;-64
2021/11/27 03:57:57;;;;;;;4.63;2.80;;;2.30;77.10;;;0.12;88.10;93513.53;4974377;28;20051;-65
2021/11/27 04:00:22;;;;;;;3.60;2.70;;;2.30;77.00;;;0.13;87.62;93515.16;4989071;28;20046;-64
2021/11/27 04:02:48;;;;;;;4.47;2.60;;;2.30;77.10;;;0.15;88.63;93510.59;4957565;28;20568;-64
2021/11/27 04:05:14;;;;;;;4.97;2.80;;;2.30;77.20;;;0.17;88.48;93513.78;4990242;28;20121;-65
2021/11/27 04:07:40;;;;;;;4.20;2.60;;;2.30;77.10;;;0.17;87.99;93508.59;4987298;28;20096;-66
2021/11/27 04:10:05;;;;;;;4.35;2.53;;;2.20;77.00;;;0.17;87.86;93504.22;4957868;28;20184;-64
2021/11/27 04:12:31;;;;;;;3.55;2.40;;;2.20;77.10;;;0.22;87.70;93516.59;4987026;28;20125;-65
2021/11/27 04:14:57;;;;;;;4.55;3.08;;;2.30;77.20;;;0.24;87.67;93514.63;4972886;28;20054;-65
2021/11/27 04:17:23;;;;;;;4.18;2.90;;;2.40;77.10;;;0.28;87.58;93514.06;4989014;28;20044;-65
2021/11/27 04:19:48;;;;;;;4.80;2.80;;;2.50;77.00;;;0.31;87.36;93507.72;4972764;28;20129;-66
2021/11/27 04:22:14;;;;;;;4.00;2.80;;;2.50;76.90;;;0.32;87.72;93495.59;4981692;28;20077;-65
2021/11/27 04:24:40;;;;;;;4.55;2.70;;;2.50;76.70;;;0.33;87.81;93489.44;4989366;28;20038;-65
2021/11/27 04:27:06;;;;;;;5.55;3.42;;;2.50;76.70;;;0.31;87.42;93474.09;4972165;28;20043;-65
2021/11/27 04:29:32;;;;;;;4.70;3.10;;;2.60;76.50;;;0.34;86.89;93489.22;4987809;28;20576;-65
2021/11/27 04:31:57;;;;;;;5.05;3.35;;;2.40;76.20;;;0.36;86.99;93482.09;4984923;28;20034;-66
2021/11/27 04:34:23;;;;;;;4.95;3.30;;;2.40;76.40;;;0.38;86.64;93494.81;5005837;28;20351;-67
2021/11/27 04:36:49;;;;;;;5.72;3.42;;;2.40;76.60;;;0.39;87.41;93491.25;4965769;28;20108;-69
2021/11/27 04:39:15;;;;;;;4.45;3.03;;;2.50;76.70;;;0.41;87.35;93492.66;4989708;28;20108;-66
2021/11/27 04:41:40;;;;;;;5.72;3.30;;;2.50;76.60;;;0.42;87.41;93491.66;4988763;28;20110;-64
2021/11/27 04:44:06;;;;;;;5.53;3.25;;;2.60;76.60;;;0.45;87.79;93495.63;4965356;28;20121;-65
2021/11/27 04:46:32;;;;;;;4.88;3.17;;;2.60;76.50;;;0.48;86.85;93497.88;4990207;28;20161;-65
2021/11/27 04:48:57;;;;;;;4.65;3.30;;;2.70;76.20;;;0.50;86.79;93488.13;4970898;28;20039;-66
2021/11/27 04:51:23;;;;;;;5.10;3.55;;;2.60;76.20;;;0.52;87.09;93492.13;4985643;28;20069;-65
2021/11/27 04:53:49;;;;;;;5.05;3.42;;;2.70;76.30;;;0.55;87.85;93493.53;4958916;28;20034;-65
2021/11/27 04:56:15;;;;;;;5.40;3.60;;;2.80;76.30;;;0.58;86.50;93496.50;4974105;28;20077;-66
2021/11/27 04:58:40;;;;;;;5.18;3.78;;;2.80;76.30;;;0.59;87.40;93492.16;4990317;28;20193;-67
2021/11/27 05:01:06;;;;;;;7.72;5.55;;;2.80;76.50;;;0.60;87.20;93497.13;4989999;28;20031;-66
2021/11/27 05:03:32;;;;;;;8.52;4.75;;;2.80;77.00;;;0.63;87.31;93493.34;4957419;28;20031;-66
2021/11/27 05:05:58;;;;;;;8.55;6.10;;;2.80;77.10;;;0.65;88.23;93495.75;4991203;28;20033;-65
2021/11/27 05:08:24;;;;;;;11.70;8.23;;;2.90;77.00;;;0.66;87.77;93500.72;4990226;28;20031;-65
2021/11/27 05:10:50;;;;;;;14.50;9.85;;;2.90;77.20;;;0.68;88.08;93501.34;4973368;28;20433;-65
2021/11/27 05:13:16;;;;;;;15.15;10.82;;;2.90;76.90;;;0.69;87.88;93499.56;4957591;28;20034;-66
2021/11/27 05:15:41;;;;;;;8.50;6.18;;;2.90;77.10;;;0.72;88.05;93496.59;4957844;28;20129;-65
2021/11/27 05:18:07;;;;;;;6.65;4.90;;;2.90;77.40;;;0.72;88.24;93491.41;4973676;28;20057;-65
2021/11/27 05:20:33;;;;;;;7.05;4.65;;;2.80;77.40;;;0.71;87.76;93498.38;4989708;28;20054;-65
2021/11/27 05:22:59;;;;;;;6.53;4.75;;;2.80;77.60;;;0.72;88.28;93499.97;4991393;28;20741;-64
2021/11/27 05:25:25;;;;;;;6.85;4.75;;;2.80;78.00;;;0.72;88.33;93496.59;4973697;28;20271;-66
2021/11/27 05:27:51;;;;;;;6.38;4.70;;;2.80;78.10;;;0.72;88.64;93499.19;4957706;28;20485;-64
2021/11/27 05:30:16;;;;;;;6.53;4.63;;;2.80;78.30;;;0.73;88.70;93487.84;4990728;28;20070;-66
2021/11/27 05:35:23;;;;;;;6.10;4.53;;;2.80;78.50;;;0.76;87.86;93482.28;4975272;28;20491;-72
2021/11/27 05:37:48;;;;;;;7.43;4.93;;;2.70;78.70;;;0.78;88.63;93472.53;4990260;28;20057;-71
2021/11/27 05:40:14;;;;;;;7.10;4.95;;;2.80;78.60;;;0.80;88.25;93468.75;4972712;28;20038;-70
2021/11/27 05:42:42;;;;;;;11.40;7.55;;;2.90;78.50;;;0.82;88.31;93465.97;4973156;28;20042;-69
2021/11/27 05:45:08;;;;;;;10.63;7.35;;;3.00;78.50;;;0.84;88.59;93463.97;4979410;28;20038;-70
2021/11/27 05:47:34;;;;;;;6.80;5.28;;;2.90;78.90;;;0.85;88.77;93471.56;4990273;28;20122;-70
2021/11/27 05:50:00;;;;;;;6.43;4.80;;;3.00;78.80;;;0.86;88.81;93475.72;4972669;28;20069;-70
2021/11/27 05:52:26;;;;;;;9.48;6.88;;;3.00;78.60;;;0.89;89.01;93487.47;5005419;28;20490;-71
2021/11/27 05:54:51;;;;;;;7.72;5.57;;;3.10;78.40;;;0.88;88.70;93480.72;4989918;28;20328;-70
2021/11/27 05:57:17;;;;;;;7.88;5.68;;;3.00;78.40;;;0.89;88.83;93492.66;4989802;28;20058;-71
2021/11/27 05:59:43;;;;;;;8.68;6.70;;;3.10;78.60;;;0.92;88.79;93492.28;4978970;28;20042;-70
2021/11/27 06:02:09;;;;;;;10.00;7.40;;;3.10;78.50;;;0.93;88.70;93480.94;4989466;28;20493;-71
2021/11/27 06:04:34;;;;;;;7.95;5.10;;;3.10;78.40;;;0.93;88.36;93493.88;4989419;28;20480;-71
2021/11/27 06:07:00;;;;;;;8.63;4.90;;;3.10;78.10;;;0.96;88.36;93508.22;4989524;28;20042;-71
2021/11/27 06:09:26;;;;;;;9.02;6.18;;;3.10;78.10;;;0.96;88.88;93529.72;4989480;28;20034;-70
2021/11/27 06:11:52;;;;;;;6.65;5.43;;;3.10;78.80;;;0.97;89.08;93515.78;4973355;28;20042;-71
2021/11/27 06:14:17;;;;;;;6.38;4.90;;;3.00;78.70;;;0.98;89.02;93522.56;4989130;28;20322;-71
2021/11/27 06:16:43;;;;;;;5.95;4.43;;;3.10;78.20;;;1.00;88.47;93520.56;4990369;28;20057;-71
2021/11/27 06:19:09;;;;;;;6.28;4.50;;;3.20;78.10;;;1.02;88.71;93535.91;4972941;28;20050;-72
2021/11/27 06:21:35;;;;;;;6.80;5.40;;;3.20;78.40;;;1.03;89.18;93529.75;4957013;28;20117;-71
2021/11/27 06:24:01;;;;;;;6.78;5.07;;;3.30;78.40;;;1.05;88.64;93531.13;4972736;28;20101;-71
2021/11/27 06:26:26;;;;;;;6.20;4.72;;;3.30;78.20;;;1.06;89.37;93535.31;4972246;28;20078;-71
2021/11/27 06:28:52;;;;;;;6.43;4.85;;;3.30;78.30;;;1.08;88.91;93529.94;4972545;28;20038;-71
2021/11/27 06:31:18;;;;;;;6.57;5.05;;;3.40;78.10;;;1.09;89.07;93529.75;4972825;28;20117;-72
2021/11/27 06:33:44;;;;;;;8.05;5.43;;;3.40;78.20;;;1.10;89.41;93528.75;4956673;28;20069;-71
2021/11/27 06:36:10;;;;;;;8.73;5.75;;;3.50;78.00;;;1.11;88.98;93553.66;4988758;28;20120;-72
2021/11/27 06:38:35;;;;;;;7.32;5.25;;;3.40;77.90;;;1.11;89.87;93547.69;4972506;28;20034;-70
2021/11/27 06:41:02;;;;;;;7.25;5.53;;;3.30;78.40;;;1.09;89.05;93566.00;4956750;28;20038;-71
2021/11/27 06:43:28;;;;;;;7.78;5.80;;;3.40;78.00;;;1.10;89.42;93564.22;4972307;28;20049;-71
2021/11/27 06:45:54;;;;;;;8.57;5.80;;;3.40;77.90;;;1.10;88.90;93562.41;4972790;28;20470;-71
2021/11/27 06:48:20;;;;;;;7.15;5.18;;;3.30;77.90;;;1.10;88.87;93572.78;4972884;28;20041;-71
2021/11/27 06:50:46;;;;;;;8.48;5.63;;;3.40;77.90;;;1.10;89.49;93562.41;4969541;28;20134;-70
2021/11/27 06:53:12;;;;;;;9.13;6.10;;;3.40;77.80;;;1.10;89.25;93562.41;4984983;28;20038;-71
2021/11/27 06:55:37;;;;;;;7.88;5.80;;;3.40;77.80;;;1.09;89.38;93571.16;4985588;28;20034;-71
2021/11/27 06:58:03;;;;;;;6.82;5.03;;;3.40;77.80;;;1.09;88.78;93571.16;4983739;28;20125;-69
2021/11/27 07:00:29;;;;;;;7.45;5.25;;;3.30;77.80;;;1.10;88.71;93577.16;4971875;28;20093;-70
2021/11/27 07:02:55;;;;;;;6.20;4.75;;;3.40;77.60;;;1.11;88.98;93582.13;4972075;28;20734;-70
2021/11/27 07:05:21;;;;;;;6.85;5.13;;;3.30;77.30;;;1.13;88.51;93587.94;4972284;28;20072;-70
2021/11/27 07:07:46;;;;;;;6.40;4.50;;;3.40;77.10;;;1.15;88.49;93580.78;4972243;28;20030;-71
2021/11/27 07:10:12;;;;;;;6.22;4.70;;;3.40;77.00;;;1.18;88.98;93588.16;4971699;28;20450;-70
2021/11/27 07:12:38;;;;;;;6.07;4.38;;;3.50;77.10;;;1.22;88.34;93599.72;4987858;28;20379;-71
2021/11/27 07:15:05;;;;;;;7.20;5.35;;;3.60;77.10;;;1.26;88.50;93602.72;4956239;28;20045;-71
2021/11/27 07:17:31;;;;;;;7.18;4.47;;;3.60;76.90;;;1.28;88.72;93610.28;4972557;28;20535;-71
2021/11/27 07:19:57;;;;;;;5.82;4.40;;;3.60;77.00;;;1.29;88.69;93598.94;4972188;28;20069;-70
2021/11/27 07:22:25;;;;;;;6.07;4.30;;;3.60;76.90;;;1.29;88.60;93591.97;4970502;28;20109;-71
2021/11/27 07:24:50;;;;;;;6.28;4.47;;;3.60;77.10;;;1.31;88.73;93584.00;4986657;28;20516;-72
2021/11/27 07:27:16;;;;;;;7.00;4.65;;;3.50;77.20;;;1.30;88.23;93590.16;4972117;28;20046;-71
2021/11/27 07:29:42;;;;;;;6.93;4.47;;;3.50;77.30;;;1.29;88.45;93588.56;4944019;28;20101;-72
2021/11/27 07:32:08;;;;;;;6.07;4.70;;;3.50;77.60;;;1.31;88.72;93594.34;4971801;28;20054;-71
2021/11/27 07:34:34;;;;;;;7.47;4.70;;;3.40;77.70;;;1.31;88.91;93596.94;4955759;28;20480;-71
2021/11/27 07:36:59;;;;;;;6.40;4.85;;;3.50;77.80;;;1.35;88.62;93590.38;4956119;28;20128;-71
2021/11/27 07:39:25;;;;;;;6.43;4.95;;;3.60;77.60;;;1.31;88.63;93579.63;4964297;28;20041;-72
2021/11/27 07:41:51;;;;;;;7.15;5.40;;;3.60;77.80;;;1.38;88.43;93585.63;4987392;28;20089;-70
2021/11/27 07:44:17;;;;;;;7.75;5.68;;;3.70;77.80;;;1.38;89.29;93582.25;4987457;28;20113;-70
2021/11/27 07:46:46;;;;;;;7.85;5.32;;;3.70;77.90;;;1.40;89.59;93588.03;4971220;28;20038;-69
2021/11/27 07:49:12;;;;;;;7.30;5.40;;;3.70;77.90;;;1.41;88.93;93584.44;4971553;28;20038;-67
2021/11/27 07:51:38;;;;;;;6.80;5.20;;;3.80;77.80;;;1.44;89.63;93584.06;4968985;28;20483;-69
2021/11/27 07:54:04;;;;;;;5.93;4.65;;;3.80;77.60;;;1.46;89.09;93582.06;4970860;28;20034;-68
2021/11/27 07:56:30;;;;;;;6.57;5.20;;;3.90;77.60;;;1.48;89.36;93586.06;4971441;28;20129;-69
2021/11/27 07:58:55;;;;;;;7.43;5.03;;;3.90;77.50;;;1.48;89.21;93586.06;4970892;28;20042;-66
2021/11/27 08:01:21;;;;;;;6.85;4.65;;;3.80;77.60;;;1.50;89.79;93578.09;4988774;28;20076;-68
2021/11/27 08:03:47;;;;;;;9.18;5.70;;;3.90;77.80;;;1.49;89.14;93592.84;4987521;28;20030;-68
2021/11/27 08:06:12;;;;;;;8.60;6.10;;;3.80;78.00;;;1.49;89.55;93594.63;4987288;28;20402;-67
2021/11/27 08:08:38;;;;;;;7.22;5.60;;;3.70;78.10;;;1.49;89.76;93587.66;4955243;28;20059;-68
2021/11/27 08:11:05;;;;;;;7.15;5.07;;;3.70;78.00;;;1.48;89.77;93600.81;4971077;28;20034;-67
2021/11/27 08:13:31;;;;;;;7.20;5.38;;;3.70;78.30;;;1.47;89.55;93596.63;4991069;28;20073;-68
2021/11/27 08:15:56;;;;;;;6.25;5.00;;;3.70;78.20;;;1.47;89.28;93600.00;4992523;28;20034;-66
2021/11/27 08:18:22;;;;;;;6.60;5.10;;;3.70;78.10;;;1.49;89.60;93594.63;4975082;28;20093;-68
2021/11/27 08:20:50;;;;;;;7.70;5.28;;;3.70;78.20;;;1.51;89.80;93600.41;4989924;28;20042;-66
2021/11/27 08:23:17;;;;;;;7.32;5.10;;;3.80;78.20;;;1.52;89.83;93609.78;4974833;28;20035;-66
2021/11/27 08:25:44;;;;;;;7.07;5.15;;;3.80;78.00;;;1.55;89.45;93596.44;4959198;28;20038;-66
2021/11/27 08:28:09;;;;;;;7.60;5.05;;;3.90;78.20;;;1.61;90.09;93600.84;4979157;28;20038;-66
2021/11/27 08:30:35;;;;;;;6.82;4.93;;;4.00;77.80;;;1.65;89.87;93609.81;4972530;28;20466;-65
2021/11/27 08:33:01;;;;;;;6.38;5.22;;;4.10;77.70;;;1.72;89.28;93602.84;4984539;28;20136;-64
2021/11/27 08:35:27;;;;;;;6.53;4.90;;;4.10;77.10;;;1.76;89.60;93604.06;4975047;28;20054;-64
2021/11/27 08:37:52;;;;;;;5.50;4.80;;;4.10;77.30;;;1.80;89.82;93614.81;4990821;28;20030;-65
2021/11/27 08:40:18;;;;;;;6.78;5.10;;;4.10;77.30;;;1.82;88.97;93618.84;4973532;28;20062;-65
2021/11/27 08:42:44;;;;;;;5.53;4.22;;;4.10;77.20;;;1.81;89.08;93625.03;4974457;28;20047;-71
2021/11/27 08:45:10;;;;;;;6.53;4.95;;;4.10;77.40;;;1.83;89.30;93624.81;4942208;28;20791;-69
2021/11/27 08:47:36;;;;;;;5.82;4.57;;;4.10;77.40;;;1.83;89.00;93625.63;4974489;28;20058;-70
2021/11/27 08:50:02;;;;;;;5.63;4.40;;;4.10;77.50;;;1.89;89.10;93639.59;4974668;28;20117;-70
2021/11/27 08:52:28;;;;;;;13.15;4.82;;;4.20;77.40;;;1.92;89.06;93634.00;4973847;28;20031;-69
2021/11/27 08:54:54;;;;;;;6.22;4.93;;;4.30;77.50;;;1.94;89.11;93628.63;4974798;28;20029;-69
2021/11/27 08:57:20;;;;;;;6.18;4.47;;;4.30;77.30;;;1.98;89.56;93642.78;4974636;28;20038;-69
2021/11/27 08:59:45;;;;;;;8.07;4.55;;;4.30;77.30;;;2.00;88.92;93643.38;4958600;28;20077;-70
2021/11/27 09:02:11;;;;;;;5.68;4.20;;;4.40;77.00;;;2.03;89.15;93640.38;4990472;28;20065;-69
2021/11/27 09:04:38;;;;;;;6.78;4.25;;;4.30;76.90;;;2.06;88.98;93640.03;4957924;28;20117;-70
2021/11/27 09:07:04;;;;;;;5.28;4.03;;;4.30;77.10;;;2.11;88.42;93646.22;4957673;28;20061;-70
2021/11/27 09:09:30;;;;;;;7.40;5.13;;;4.30;77.00;;;2.13;89.12;93654.59;4990465;28;20034;-70
2021/11/27 09:11:56;;;;;;;6.28;4.43;;;4.40;77.30;;;2.18;88.53;93661.75;4974506;28;20035;-70
2021/11/27 09:14:22;;;;;;;5.63;4.07;;;4.30;77.00;;;2.20;88.70;93667.56;4973988;28;20450;-71
2021/11/27 09:16:50;;;;;;;5.80;4.72;;;4.40;77.10;;;2.23;88.51;93677.53;4973977;28;20160;-70
2021/11/27 09:19:16;;;;;;;7.07;4.90;;;4.50;76.90;;;2.28;88.41;93680.34;4990174;28;20030;-71
2021/11/27 09:21:42;;;;;;;7.40;5.03;;;4.50;76.90;;;2.30;88.60;93688.72;4974073;28;20037;-70
2021/11/27 09:24:09;;;;;;;8.95;5.35;;;4.50;76.80;;;2.32;88.27;93680.75;4988361;28;20120;-69
2021/11/27 09:26:37;;;;;;;6.32;4.88;;;4.50;77.10;;;2.31;88.00;93674.75;4972953;28;20034;-67
2021/11/27 09:29:07;;;;;;;5.88;4.55;;;4.50;76.80;;;2.32;87.94;93675.56;4938670;28;20114;-68
2021/11/27 09:31:38;;;;;;;5.53;4.35;;;4.50;76.80;;;2.37;87.99;93686.13;4986014;28;20039;-72
2021/11/27 09:34:05;;;;;;;6.32;4.57;;;4.60;76.80;;;2.41;88.33;93685.53;4988607;28;20052;-66
2021/11/27 09:36:31;;;;;;;7.15;4.38;;;4.70;77.40;;;2.45;88.16;93689.31;4988008;28;20042;-69
2021/11/27 09:38:57;;;;;;;5.78;4.30;;;4.70;77.00;;;2.51;88.29;93684.38;4972548;28;20125;-68
2021/11/27 09:41:27;;;;;;;5.93;4.45;;;4.80;76.80;;;2.56;88.26;93677.56;4990047;28;20061;-68
2021/11/27 09:43:56;;;;;;;4.97;4.20;;;4.90;76.70;;;2.61;88.06;93687.34;4989722;28;20506;-68
2021/11/27 09:46:22;;;;;;;6.13;4.22;;;4.90;76.40;;;2.64;88.31;93673.97;4953262;28;20038;-68
2021/11/27 09:48:51;;;;;;;5.57;4.03;;;4.90;76.20;;;2.68;87.85;93680.34;4953697;28;20066;-68
2021/11/27 09:51:23;;;;;;;5.35;4.13;;;5.00;76.40;;;2.72;87.96;93672.00;4973374;28;20378;-68
2021/11/27 09:53:50;;;;;;;7.07;4.03;;;5.00;76.20;;;2.77;87.92;93673.97;4989801;28;20402;-67
2021/11/27 09:56:16;;;;;;;4.85;4.03;;;5.10;75.80;;;2.82;87.73;93676.78;4972366;28;20038;-69
2021/11/27 09:58:43;;;;;;;5.00;3.95;;;5.20;75.80;;;2.88;87.96;93675.97;5005844;28;20036;-70
2021/11/27 10:01:09;;;;;;;6.50;4.10;;;5.30;75.30;;;2.93;87.49;93678.75;4987969;28;20502;-66
2021/11/27 10:03:34;;;;;;;6.78;3.83;;;5.40;75.10;;;2.98;87.27;93667.78;4970115;28;20078;-66
2021/11/27 10:06:00;;;;;;;4.90;4.20;;;5.40;74.90;;;3.02;87.69;93677.56;4969540;28;20089;-66
2021/11/27 10:08:26;;;;;;;6.93;4.57;;;5.40;75.10;;;3.09;86.97;93682.72;4988830;28;20529;-67
2021/11/27 10:10:52;;;;;;;5.70;3.90;;;5.50;75.10;;;3.14;87.23;93689.91;4987651;28;20473;-64
2021/11/27 10:13:19;;;;;;;6.32;4.60;;;5.60;75.10;;;3.20;87.26;93678.72;4990115;28;20038;-67
2021/11/27 10:15:45;;;;;;;5.45;4.07;;;5.60;74.60;;;3.27;86.84;93676.91;4973112;28;20069;-68
2021/11/27 10:18:18;;;;;;;6.53;4.05;;;5.70;74.60;;;3.34;87.01;93675.09;4989211;28;20038;-67
2021/11/27 10:20:44;;;;;;;5.70;4.18;;;5.70;74.50;;;3.38;86.58;93681.47;4972540;28;20042;-66
2021/11/27 10:23:10;;;;;;;5.30;3.78;;;5.70;73.80;;;3.41;86.57;93691.47;4989897;28;20037;-70
2021/11/27 10:25:43;;;;;;;5.32;4.35;;;5.80;73.70;;;3.44;85.37;93680.66;4957062;28;20061;-68
2021/11/27 10:28:15;;;;;;;5.63;4.30;;;5.80;73.60;;;3.44;85.92;93675.47;4973167;28;20057;-66